sensor_id;sensor_type;location;lat;lon;timestamp;pressure;altitude;pressure_sealevel;temperature;humidity
40155;BME280;25875;48.202;16.334;2023-01-30T00:00:05;99617.06;;;-0.45;65.10
40155;BME280;25875;48.202;16.334;2023-01-30T00:02:32;99609.28;;;-0.45;65.18
40155;BME280;25875;48.202;16.334;2023-01-30T00:04:59;99613.59;;;-0.45;65.28
40155;BME280;25875;48.202;16.334;2023-01-30T00:07:27;99614.50;;;-0.48;65.16
40155;BME280;25875;48.202;16.334;2023-01-30T00:09:54;99617.06;;;-0.45;65.14
40155;BME280;25875;48.202;16.334;2023-01-30T00:12:21;99605.78;;;-0.44;65.19
40155;BME280;25875;48.202;16.334;2023-01-30T00:14:48;99599.72;;;-0.44;65.13
40155;BME280;25875;48.202;16.334;2023-01-30T00:17:15;99604.91;;;-0.44;65.10
40155;BME280;25875;48.202;16.334;2023-01-30T00:19:41;99614.47;;;-0.45;65.30
40155;BME280;25875;48.202;16.334;2023-01-30T00:22:08;99598.84;;;-0.45;65.31
40155;BME280;25875;48.202;16.334;2023-01-30T00:24:36;99592.78;;;-0.47;65.37
40155;BME280;25875;48.202;16.334;2023-01-30T00:27:03;99595.41;;;-0.47;65.24
40155;BME280;25875;48.202;16.334;2023-01-30T00:29:30;99584.97;;;-0.47;65.26
40155;BME280;25875;48.202;16.334;2023-01-30T00:31:57;99598.88;;;-0.46;65.33
40155;BME280;25875;48.202;16.334;2023-01-30T00:34:23;99585.84;;;-0.46;65.27
40155;BME280;25875;48.202;16.334;2023-01-30T00:36:50;99577.16;;;-0.47;65.26
40155;BME280;25875;48.202;16.334;2023-01-30T00:39:17;99570.25;;;-0.49;65.59
40155;BME280;25875;48.202;16.334;2023-01-30T00:41:46;99576.31;;;-0.49;65.39
40155;BME280;25875;48.202;16.334;2023-01-30T00:44:30;99561.56;;;-0.50;65.46
40155;BME280;25875;48.202;16.334;2023-01-30T00:47:14;99551.16;;;-0.50;65.39
40155;BME280;25875;48.202;16.334;2023-01-30T00:49:42;99558.09;;;-0.50;65.32
40155;BME280;25875;48.202;16.334;2023-01-30T00:52:08;99551.16;;;-0.50;65.35
40155;BME280;25875;48.202;16.334;2023-01-30T00:54:35;99544.22;;;-0.51;65.56
40155;BME280;25875;48.202;16.334;2023-01-30T00:57:03;99530.34;;;-0.51;65.46
40155;BME280;25875;48.202;16.334;2023-01-30T00:59:30;99531.22;;;-0.52;65.41
40155;BME280;25875;48.202;16.334;2023-01-30T01:01:57;99545.97;;;-0.51;65.16
40155;BME280;25875;48.202;16.334;2023-01-30T01:04:24;99526.88;;;-0.52;65.36
40155;BME280;25875;48.202;16.334;2023-01-30T01:06:51;99519.94;;;-0.53;65.32
40155;BME280;25875;48.202;16.334;2023-01-30T01:09:17;99524.28;;;-0.53;65.48
40155;BME280;25875;48.202;16.334;2023-01-30T01:11:44;99518.19;;;-0.52;65.45
40155;BME280;25875;48.202;16.334;2023-01-30T01:14:12;99515.59;;;-0.52;65.34
40155;BME280;25875;48.202;16.334;2023-01-30T01:16:39;99497.38;;;-0.52;65.25
40155;BME280;25875;48.202;16.334;2023-01-30T01:19:06;99492.16;;;-0.52;65.25
40155;BME280;25875;48.202;16.334;2023-01-30T01:21:32;99488.69;;;-0.54;65.39
40155;BME280;25875;48.202;16.334;2023-01-30T01:23:59;99490.41;;;-0.52;65.29
40155;BME280;25875;48.202;16.334;2023-01-30T01:26:26;99482.63;;;-0.53;65.26
40155;BME280;25875;48.202;16.334;2023-01-30T01:28:53;99478.28;;;-0.54;65.37
40155;BME280;25875;48.202;16.334;2023-01-30T01:31:22;99486.09;;;-0.54;65.39
40155;BME280;25875;48.202;16.334;2023-01-30T01:33:50;99391.91;;;-1.04;65.39
40155;BME280;25875;48.202;16.334;2023-01-30T01:36:17;99478.28;;;-0.54;65.40
40155;BME280;25875;48.202;16.334;2023-01-30T01:38:43;99484.38;;;-0.55;65.24
40155;BME280;25875;48.202;16.334;2023-01-30T01:41:12;99480.91;;;-0.54;65.21
40155;BME280;25875;48.202;16.334;2023-01-30T01:43:59;99470.47;;;-0.54;65.69
40155;BME280;25875;48.202;16.334;2023-01-30T01:46:31;99464.44;;;-0.58;65.45
40155;BME280;25875;48.202;16.334;2023-01-30T01:49:04;99468.78;;;-0.57;65.30
40155;BME280;25875;48.202;16.334;2023-01-30T01:51:34;99448.81;;;-0.56;65.33
40155;BME280;25875;48.202;16.334;2023-01-30T01:54:07;99445.34;;;-0.57;65.48
40155;BME280;25875;48.202;16.334;2023-01-30T01:56:39;99452.28;;;-0.57;65.44
40155;BME280;25875;48.202;16.334;2023-01-30T01:59:10;99442.72;;;-0.57;65.45
40155;BME280;25875;48.202;16.334;2023-01-30T02:01:40;99435.78;;;-0.56;65.35
40155;BME280;25875;48.202;16.334;2023-01-30T02:04:09;99442.72;;;-0.57;65.33
40155;BME280;25875;48.202;16.334;2023-01-30T02:06:38;99434.91;;;-0.57;65.18
40155;BME280;25875;48.202;16.334;2023-01-30T02:09:08;99426.25;;;-0.56;65.39
40155;BME280;25875;48.202;16.334;2023-01-30T02:11:41;99361.56;;;-1.02;65.50
40155;BME280;25875;48.202;16.334;2023-01-30T02:14:11;99431.44;;;-0.56;65.30
40155;BME280;25875;48.202;16.334;2023-01-30T02:16:42;99424.53;;;-0.58;65.21
40155;BME280;25875;48.202;16.334;2023-01-30T02:19:25;99419.31;;;-0.57;65.34
40155;BME280;25875;48.202;16.334;2023-01-30T02:22:11;99411.50;;;-0.58;65.30
40155;BME280;25875;48.202;16.334;2023-01-30T02:25:09;99410.66;;;-0.59;65.39
40155;BME280;25875;48.202;16.334;2023-01-30T02:27:56;99409.81;;;-0.61;65.38
40155;BME280;25875;48.202;16.334;2023-01-30T02:31:04;99412.41;;;-0.61;65.50
40155;BME280;25875;48.202;16.334;2023-01-30T02:33:39;99216.53;;;-1.70;65.20
40155;BME280;25875;48.202;16.334;2023-01-30T02:36:15;99420.22;;;-0.61;65.40
40155;BME280;25875;48.202;16.334;2023-01-30T02:38:47;99403.78;;;-0.66;65.59
40155;BME280;25875;48.202;16.334;2023-01-30T02:41:21;99400.28;;;-0.65;65.47
40155;BME280;25875;48.202;16.334;2023-01-30T02:43:58;99396.78;;;-0.62;65.51
40155;BME280;25875;48.202;16.334;2023-01-30T02:46:36;99322.63;;;-1.11;65.37
40155;BME280;25875;48.202;16.334;2023-01-30T02:49:10;99371.81;;;-0.80;65.57
40155;BME280;25875;48.202;16.334;2023-01-30T02:51:41;99390.69;;;-0.60;65.32
40155;BME280;25875;48.202;16.334;2023-01-30T02:54:10;99396.75;;;-0.58;65.16
40155;BME280;25875;48.202;16.334;2023-01-30T02:56:46;99189.72;;;-1.75;65.34
40155;BME280;25875;48.202;16.334;2023-01-30T02:59:17;99373.34;;;-0.59;65.28
40155;BME280;25875;48.202;16.334;2023-01-30T03:04:55;99373.34;;;-0.59;65.40
40155;BME280;25875;48.202;16.334;2023-01-30T03:07:36;99356.88;;;-0.61;65.60
40155;BME280;25875;48.202;16.334;2023-01-30T03:10:10;99355.13;;;-0.59;65.35
40155;BME280;25875;48.202;16.334;2023-01-30T03:12:46;99362.94;;;-0.59;65.31
40155;BME280;25875;48.202;16.334;2023-01-30T03:15:16;99360.38;;;-0.64;65.58
40155;BME280;25875;48.202;16.334;2023-01-30T03:17:49;99357.75;;;-0.62;65.43
40155;BME280;25875;48.202;16.334;2023-01-30T03:20:18;99297.44;;;-1.06;65.47
40155;BME280;25875;48.202;16.334;2023-01-30T03:22:46;99281.81;;;-1.04;65.23
40155;BME280;25875;48.202;16.334;2023-01-30T03:25:18;99340.34;;;-0.57;65.39
40155;BME280;25875;48.202;16.334;2023-01-30T03:27:46;99344.66;;;-0.56;65.28
40155;BME280;25875;48.202;16.334;2023-01-30T03:30:14;99353.34;;;-0.56;65.06
40155;BME280;25875;48.202;16.334;2023-01-30T03:32:41;99354.22;;;-0.55;65.13
40155;BME280;25875;48.202;16.334;2023-01-30T03:35:09;99341.19;;;-0.54;65.34
40155;BME280;25875;48.202;16.334;2023-01-30T03:37:36;99325.53;;;-0.52;65.09
40155;BME280;25875;48.202;16.334;2023-01-30T03:40:04;99320.34;;;-0.52;64.88
40155;BME280;25875;48.202;16.334;2023-01-30T03:42:31;99316.00;;;-0.52;65.16
40155;BME280;25875;48.202;16.334;2023-01-30T03:44:58;99309.91;;;-0.51;65.04
40155;BME280;25875;48.202;16.334;2023-01-30T03:47:24;99310.75;;;-0.50;65.40
40155;BME280;25875;48.202;16.334;2023-01-30T03:49:51;99307.28;;;-0.49;64.99
40155;BME280;25875;48.202;16.334;2023-01-30T03:52:19;99117.66;;;-1.56;64.83
40155;BME280;25875;48.202;16.334;2023-01-30T03:54:46;99294.25;;;-0.48;64.95
40155;BME280;25875;48.202;16.334;2023-01-30T03:57:13;99284.69;;;-0.47;64.86
40155;BME280;25875;48.202;16.334;2023-01-30T03:59:39;99275.16;;;-0.48;64.95
40155;BME280;25875;48.202;16.334;2023-01-30T04:02:06;99278.63;;;-0.48;64.86
40155;BME280;25875;48.202;16.334;2023-01-30T04:04:33;99283.81;;;-0.48;64.95
40155;BME280;25875;48.202;16.334;2023-01-30T04:07:00;99269.38;;;-0.73;64.84
40155;BME280;25875;48.202;16.334;2023-01-30T04:09:30;99291.59;;;-0.45;64.87
40155;BME280;25875;48.202;16.334;2023-01-30T04:11:56;99287.28;;;-0.46;64.82
40155;BME280;25875;48.202;16.334;2023-01-30T04:14:23;99291.59;;;-0.43;64.71
40155;BME280;25875;48.202;16.334;2023-01-30T04:16:50;99288.09;;;-0.42;64.54
40155;BME280;25875;48.202;16.334;2023-01-30T04:19:17;99295.03;;;-0.41;64.63
40155;BME280;25875;48.202;16.334;2023-01-30T04:21:43;99282.84;;;-0.39;64.54
40155;BME280;25875;48.202;16.334;2023-01-30T04:24:10;99275.94;;;-0.40;64.44
40155;BME280;25875;48.202;16.334;2023-01-30T04:26:39;99178.75;;;-1.14;64.53
40155;BME280;25875;48.202;16.334;2023-01-30T04:29:05;99275.03;;;-0.39;64.52
40155;BME280;25875;48.202;16.334;2023-01-30T04:31:32;99276.78;;;-0.40;64.58
40155;BME280;25875;48.202;16.334;2023-01-30T04:33:59;99264.66;;;-0.41;64.54
40155;BME280;25875;48.202;16.334;2023-01-30T04:36:26;99275.06;;;-0.41;64.54
40155;BME280;25875;48.202;16.334;2023-01-30T04:38:56;99256.84;;;-0.41;64.65
40155;BME280;25875;48.202;16.334;2023-01-30T04:41:23;99254.19;;;-0.38;64.62
40155;BME280;25875;48.202;16.334;2023-01-30T04:43:51;99252.47;;;-0.39;64.46
40155;BME280;25875;48.202;16.334;2023-01-30T04:46:18;99239.38;;;-0.34;64.39
40155;BME280;25875;48.202;16.334;2023-01-30T04:48:45;99243.75;;;-0.36;64.45
40155;BME280;25875;48.202;16.334;2023-01-30T04:51:11;99263.72;;;-0.35;64.40
40155;BME280;25875;48.202;16.334;2023-01-30T04:53:38;99267.19;;;-0.34;64.59
40155;BME280;25875;48.202;16.334;2023-01-30T04:56:06;99277.59;;;-0.34;64.30
40155;BME280;25875;48.202;16.334;2023-01-30T04:58:33;99271.50;;;-0.33;64.46
40155;BME280;25875;48.202;16.334;2023-01-30T05:01:19;99263.66;;;-0.32;64.41
40155;BME280;25875;48.202;16.334;2023-01-30T05:03:48;99246.31;;;-0.33;64.39
40155;BME280;25875;48.202;16.334;2023-01-30T05:06:17;99271.50;;;-0.33;64.50
40155;BME280;25875;48.202;16.334;2023-01-30T05:08:46;99258.50;;;-0.35;64.59
40155;BME280;25875;48.202;16.334;2023-01-30T05:11:13;99256.75;;;-0.33;64.60
40155;BME280;25875;48.202;16.334;2023-01-30T05:13:40;99270.63;;;-0.34;64.54
40155;BME280;25875;48.202;16.334;2023-01-30T05:16:08;99252.41;;;-0.34;64.52
40155;BME280;25875;48.202;16.334;2023-01-30T05:18:36;99239.38;;;-0.32;64.61
40155;BME280;25875;48.202;16.334;2023-01-30T05:21:04;99241.97;;;-0.31;64.46
40155;BME280;25875;48.202;16.334;2023-01-30T05:23:32;99238.50;;;-0.31;64.35
40155;BME280;25875;48.202;16.334;2023-01-30T05:25:59;99256.72;;;-0.31;64.29
40155;BME280;25875;48.202;16.334;2023-01-30T05:28:26;99233.25;;;-0.28;64.33
40155;BME280;25875;48.202;16.334;2023-01-30T05:30:54;99223.78;;;-0.34;64.36
40155;BME280;25875;48.202;16.334;2023-01-30T05:33:21;99225.44;;;-0.28;64.31
40155;BME280;25875;48.202;16.334;2023-01-30T05:35:49;99126.47;;;-0.91;63.99
40155;BME280;25875;48.202;16.334;2023-01-30T05:38:16;99240.19;;;-0.27;64.02
40155;BME280;25875;48.202;16.334;2023-01-30T05:40:42;99224.53;;;-0.27;64.12
40155;BME280;25875;48.202;16.334;2023-01-30T05:43:09;99164.38;;;-0.71;63.89
40155;BME280;25875;48.202;16.334;2023-01-30T05:45:36;99227.16;;;-0.29;64.17
40155;BME280;25875;48.202;16.334;2023-01-30T05:48:03;99233.19;;;-0.25;64.03
40155;BME280;25875;48.202;16.334;2023-01-30T05:50:30;99243.63;;;-0.25;64.13
40155;BME280;25875;48.202;16.334;2023-01-30T05:52:58;99242.75;;;-0.26;64.23
40155;BME280;25875;48.202;16.334;2023-01-30T05:55:25;99253.19;;;-0.26;64.10
40155;BME280;25875;48.202;16.334;2023-01-30T05:57:52;99259.22;;;-0.24;64.08
40155;BME280;25875;48.202;16.334;2023-01-30T06:00:20;98729.22;;;-3.24;63.80
40155;BME280;25875;48.202;16.334;2023-01-30T06:02:46;99258.38;;;-0.26;63.92
40155;BME280;25875;48.202;16.334;2023-01-30T06:05:13;99078.25;;;-1.20;63.86
40155;BME280;25875;48.202;16.334;2023-01-30T06:07:40;99227.13;;;-0.26;63.97
40155;BME280;25875;48.202;16.334;2023-01-30T06:10:09;99200.19;;;-0.25;63.82
40155;BME280;25875;48.202;16.334;2023-01-30T06:12:36;99193.25;;;-0.24;63.86
40155;BME280;25875;48.202;16.334;2023-01-30T06:15:04;99209.75;;;-0.25;64.04
40155;BME280;25875;48.202;16.334;2023-01-30T06:17:30;99237.53;;;-0.26;63.84
40155;BME280;25875;48.202;16.334;2023-01-30T06:19:57;99241.88;;;-0.25;63.96
40155;BME280;25875;48.202;16.334;2023-01-30T06:22:24;99227.97;;;-0.24;63.83
40155;BME280;25875;48.202;16.334;2023-01-30T06:24:51;99226.22;;;-0.23;63.86
40155;BME280;25875;48.202;16.334;2023-01-30T06:27:19;99243.59;;;-0.24;63.86
40155;BME280;25875;48.202;16.334;2023-01-30T06:29:45;99221.00;;;-0.23;63.89
40155;BME280;25875;48.202;16.334;2023-01-30T06:32:13;99207.13;;;-0.22;63.77
40155;BME280;25875;48.202;16.334;2023-01-30T06:34:39;99221.00;;;-0.23;63.63
40155;BME280;25875;48.202;16.334;2023-01-30T06:37:06;99211.47;;;-0.23;63.53
40155;BME280;25875;48.202;16.334;2023-01-30T06:39:33;99108.97;;;-0.79;63.89
40155;BME280;25875;48.202;16.334;2023-01-30T06:42:00;99178.56;;;-0.30;63.70
40155;BME280;25875;48.202;16.334;2023-01-30T06:44:28;99176.66;;;-0.17;63.79
40155;BME280;25875;48.202;16.334;2023-01-30T06:46:55;99175.78;;;-0.18;63.63
40155;BME280;25875;48.202;16.334;2023-01-30T06:49:22;99177.50;;;-0.15;63.65
40155;BME280;25875;48.202;16.334;2023-01-30T06:51:49;99183.53;;;-0.13;63.62
40155;BME280;25875;48.202;16.334;2023-01-30T06:54:15;99180.94;;;-0.13;63.68
40155;BME280;25875;48.202;16.334;2023-01-30T06:56:42;99173.97;;;-0.11;63.71
40155;BME280;25875;48.202;16.334;2023-01-30T06:59:09;99173.94;;;-0.10;63.65
40155;BME280;25875;48.202;16.334;2023-01-30T07:01:37;99166.13;;;-0.10;63.46
40155;BME280;25875;48.202;16.334;2023-01-30T07:04:04;99137.75;;;-0.28;63.40
40155;BME280;25875;48.202;16.334;2023-01-30T07:06:31;99164.31;;;-0.06;63.32
40155;BME280;25875;48.202;16.334;2023-01-30T07:08:57;99161.66;;;-0.03;63.01
40155;BME280;25875;48.202;16.334;2023-01-30T07:11:24;99145.16;;;-0.02;62.95
40155;BME280;25875;48.202;16.334;2023-01-30T07:13:51;99144.25;;;0.01;62.98
40155;BME280;25875;48.202;16.334;2023-01-30T07:16:18;99155.47;;;0.04;62.96
40155;BME280;25875;48.202;16.334;2023-01-30T07:18:46;99161.56;;;0.03;62.92
40155;BME280;25875;48.202;16.334;2023-01-30T07:21:12;99163.25;;;0.07;62.73
40155;BME280;25875;48.202;16.334;2023-01-30T07:23:39;99160.63;;;0.09;62.37
40155;BME280;25875;48.202;16.334;2023-01-30T07:26:08;99167.50;;;0.13;62.37
40155;BME280;25875;48.202;16.334;2023-01-30T07:28:34;99167.47;;;0.14;61.80
40155;BME280;25875;48.202;16.334;2023-01-30T07:31:01;99160.47;;;0.18;61.99
40155;BME280;25875;48.202;16.334;2023-01-30T07:33:28;98783.25;;;-2.14;61.69
40155;BME280;25875;48.202;16.334;2023-01-30T07:35:56;99169.97;;;0.22;61.63
40155;BME280;25875;48.202;16.334;2023-01-30T07:38:23;99194.22;;;0.25;61.38
40155;BME280;25875;48.202;16.334;2023-01-30T07:40:49;99202.84;;;0.29;61.46
40155;BME280;25875;48.202;16.334;2023-01-30T07:43:16;99205.44;;;0.31;61.31
40155;BME280;25875;48.202;16.334;2023-01-30T07:45:44;99202.78;;;0.34;61.05
40155;BME280;25875;48.202;16.334;2023-01-30T07:48:13;99174.94;;;0.36;61.13
40155;BME280;25875;48.202;16.334;2023-01-30T07:50:40;99188.81;;;0.38;61.09
40155;BME280;25875;48.202;16.334;2023-01-30T07:53:11;99160.97;;;0.40;61.05
40155;BME280;25875;48.202;16.334;2023-01-30T07:55:38;99173.09;;;0.42;61.03
40155;BME280;25875;48.202;16.334;2023-01-30T07:58:05;99164.31;;;0.46;60.99
40155;BME280;25875;48.202;16.334;2023-01-30T08:00:32;99071.50;;;-0.12;60.32
40155;BME280;25875;48.202;16.334;2023-01-30T08:03:00;99170.28;;;0.53;60.98
40155;BME280;25875;48.202;16.334;2023-01-30T08:05:27;99147.63;;;0.56;60.84
40155;BME280;25875;48.202;16.334;2023-01-30T08:07:54;99144.94;;;0.61;60.75
40155;BME280;25875;48.202;16.334;2023-01-30T08:10:22;99119.72;;;0.61;60.27
40155;BME280;25875;48.202;16.334;2023-01-30T08:12:50;99143.09;;;0.66;60.72
40155;BME280;25875;48.202;16.334;2023-01-30T08:15:17;99101.88;;;0.40;60.29
40155;BME280;25875;48.202;16.334;2023-01-30T08:17:43;99122.13;;;0.72;60.33
40155;BME280;25875;48.202;16.334;2023-01-30T08:20:10;99124.63;;;0.77;59.91
40155;BME280;25875;48.202;16.334;2023-01-30T08:22:40;99115.03;;;0.79;59.82
40155;BME280;25875;48.202;16.334;2023-01-30T08:25:07;99118.50;;;0.79;59.69
40155;BME280;25875;48.202;16.334;2023-01-30T08:27:35;98950.09;;;-0.20;59.58
40155;BME280;25875;48.202;16.334;2023-01-30T08:30:02;99093.16;;;0.86;59.60
40155;BME280;25875;48.202;16.334;2023-01-30T08:32:29;99100.88;;;0.90;59.94
40155;BME280;25875;48.202;16.334;2023-01-30T08:34:56;99081.47;;;1.04;59.57
40155;BME280;25875;48.202;16.334;2023-01-30T08:37:23;99083.75;;;1.19;58.25
40155;BME280;25875;48.202;16.334;2023-01-30T08:39:50;99073.81;;;1.36;58.83
40155;BME280;25875;48.202;16.334;2023-01-30T08:42:16;99053.41;;;1.52;58.08
40155;BME280;25875;48.202;16.334;2023-01-30T08:44:45;99060.09;;;1.65;58.04
40155;BME280;25875;48.202;16.334;2023-01-30T08:47:12;99041.66;;;1.71;57.69
40155;BME280;25875;48.202;16.334;2023-01-30T08:49:38;98536.28;;;-1.08;56.91
40155;BME280;25875;48.202;16.334;2023-01-30T08:52:05;99029.81;;;1.92;57.16
40155;BME280;25875;48.202;16.334;2023-01-30T08:54:32;99046.31;;;1.94;56.82
40155;BME280;25875;48.202;16.334;2023-01-30T08:56:59;99059.28;;;1.99;56.42
40155;BME280;25875;48.202;16.334;2023-01-30T08:59:26;99050.25;;;2.10;56.46
40155;BME280;25875;48.202;16.334;2023-01-30T09:01:54;99056.09;;;2.20;56.28
40155;BME280;25875;48.202;16.334;2023-01-30T09:04:20;99028.00;;;2.28;56.04
40155;BME280;25875;48.202;16.334;2023-01-30T09:06:49;99012.41;;;2.25;55.73
40155;BME280;25875;48.202;16.334;2023-01-30T09:09:16;99030.03;;;2.17;55.13
40155;BME280;25875;48.202;16.334;2023-01-30T09:11:43;99061.56;;;2.11;55.58
40155;BME280;25875;48.202;16.334;2023-01-30T09:14:11;99020.69;;;2.08;55.97
40155;BME280;25875;48.202;16.334;2023-01-30T09:16:38;99058.25;;;2.04;55.48
40155;BME280;25875;48.202;16.334;2023-01-30T09:19:06;99038.22;;;2.05;55.81
40155;BME280;25875;48.202;16.334;2023-01-30T09:21:33;99020.72;;;2.07;56.21
40155;BME280;25875;48.202;16.334;2023-01-30T09:24:00;99026.00;;;2.05;56.03
40155;BME280;25875;48.202;16.334;2023-01-30T09:26:27;99013.88;;;2.03;55.59
40155;BME280;25875;48.202;16.334;2023-01-30T09:28:54;99013.78;;;2.06;55.64
40155;BME280;25875;48.202;16.334;2023-01-30T09:31:20;99021.59;;;2.07;55.76
40155;BME280;25875;48.202;16.334;2023-01-30T09:33:47;99005.94;;;2.06;55.53
40155;BME280;25875;48.202;16.334;2023-01-30T09:36:16;99004.16;;;2.08;55.59
40155;BME280;25875;48.202;16.334;2023-01-30T09:38:42;99005.94;;;2.06;55.41
40155;BME280;25875;48.202;16.334;2023-01-30T09:41:31;99035.50;;;2.08;54.13
40155;BME280;25875;48.202;16.334;2023-01-30T09:44:17;98983.69;;;1.91;54.31
40155;BME280;25875;48.202;16.334;2023-01-30T09:47:00;99024.97;;;2.11;54.44
40155;BME280;25875;48.202;16.334;2023-01-30T09:49:32;99012.84;;;2.08;52.16
40155;BME280;25875;48.202;16.334;2023-01-30T09:52:14;99019.63;;;2.15;53.84
40155;BME280;25875;48.202;16.334;2023-01-30T09:54:45;98999.44;;;2.20;55.11
40155;BME280;25875;48.202;16.334;2023-01-30T09:57:15;98984.38;;;2.30;54.42
40155;BME280;25875;48.202;16.334;2023-01-30T09:59:49;98988.34;;;2.43;54.13
40155;BME280;25875;48.202;16.334;2023-01-30T10:02:23;98989.22;;;2.44;52.21
40155;BME280;25875;48.202;16.334;2023-01-30T10:04:52;98982.63;;;2.60;54.95
40155;BME280;25875;48.202;16.334;2023-01-30T10:07:27;98959.41;;;2.79;53.77
40155;BME280;25875;48.202;16.334;2023-01-30T10:10:03;98921.44;;;2.94;53.78
40155;BME280;25875;48.202;16.334;2023-01-30T10:12:43;98922.75;;;3.07;53.68
40155;BME280;25875;48.202;16.334;2023-01-30T10:15:26;98947.94;;;3.11;53.24
40155;BME280;25875;48.202;16.334;2023-01-30T10:21:16;98888.72;;;3.07;53.90
40155;BME280;25875;48.202;16.334;2023-01-30T10:23:59;98900.97;;;3.06;53.47
40155;BME280;25875;48.202;16.334;2023-01-30T10:26:29;98907.25;;;3.01;53.84
40155;BME280;25875;48.202;16.334;2023-01-30T10:28:59;98885.66;;;2.94;53.69
40155;BME280;25875;48.202;16.334;2023-01-30T10:31:34;98871.84;;;2.89;53.83
40155;BME280;25875;48.202;16.334;2023-01-30T10:34:04;98775.34;;;2.24;55.27
40155;BME280;25875;48.202;16.334;2023-01-30T10:36:38;98741.75;;;2.12;54.47
40155;BME280;25875;48.202;16.334;2023-01-30T10:39:21;98876.63;;;2.76;53.81
40155;BME280;25875;48.202;16.334;2023-01-30T10:41:55;98878.47;;;2.73;54.98
40155;BME280;25875;48.202;16.334;2023-01-30T10:44:24;98882.88;;;2.71;55.11
40155;BME280;25875;48.202;16.334;2023-01-30T10:47:17;98866.34;;;2.70;53.94
40155;BME280;25875;48.202;16.334;2023-01-30T10:49:51;98880.22;;;2.72;55.09
40155;BME280;25875;48.202;16.334;2023-01-30T10:52:28;98782.56;;;2.16;54.34
40155;BME280;25875;48.202;16.334;2023-01-30T10:55:06;98783.84;;;2.03;53.68
40155;BME280;25875;48.202;16.334;2023-01-30T10:57:52;98875.91;;;2.71;53.31
40155;BME280;25875;48.202;16.334;2023-01-30T11:00:27;98861.97;;;2.71;53.79
40155;BME280;25875;48.202;16.334;2023-01-30T11:03:08;98737.47;;;2.09;53.28
40155;BME280;25875;48.202;16.334;2023-01-30T11:05:43;98830.31;;;3.05;53.98
40155;BME280;25875;48.202;16.334;2023-01-30T11:08:19;98850.06;;;3.15;52.04
40155;BME280;25875;48.202;16.334;2023-01-30T11:10:52;98331.31;;;0.33;52.65
40155;BME280;25875;48.202;16.334;2023-01-30T11:13:20;98844.22;;;3.58;53.68
40155;BME280;25875;48.202;16.334;2023-01-30T11:15:51;98838.91;;;3.84;52.70
40155;BME280;25875;48.202;16.334;2023-01-30T11:18:20;98834.59;;;4.07;52.10
40155;BME280;25875;48.202;16.334;2023-01-30T11:21:00;98815.75;;;4.19;50.10
40155;BME280;25875;48.202;16.334;2023-01-30T11:23:32;98820.50;;;4.33;50.08
40155;BME280;25875;48.202;16.334;2023-01-30T11:26:03;98819.25;;;4.43;49.52
40155;BME280;25875;48.202;16.334;2023-01-30T11:28:35;98793.88;;;4.43;47.91
40155;BME280;25875;48.202;16.334;2023-01-30T11:31:05;98775.69;;;4.39;50.36
40155;BME280;25875;48.202;16.334;2023-01-30T11:33:40;98789.28;;;4.48;50.37
40155;BME280;25875;48.202;16.334;2023-01-30T11:36:23;98787.81;;;4.63;46.85
40155;BME280;25875;48.202;16.334;2023-01-30T11:38:55;98732.78;;;4.62;48.34
40155;BME280;25875;48.202;16.334;2023-01-30T11:41:24;98747.50;;;4.86;49.91
40155;BME280;25875;48.202;16.334;2023-01-30T11:43:59;98755.44;;;5.06;47.43
40155;BME280;25875;48.202;16.334;2023-01-30T11:46:29;98754.97;;;5.17;48.80
40155;BME280;25875;48.202;16.334;2023-01-30T11:49:00;98726.66;;;5.24;49.07
40155;BME280;25875;48.202;16.334;2023-01-30T11:51:32;98721.72;;;5.36;48.95
40155;BME280;25875;48.202;16.334;2023-01-30T11:54:01;98714.03;;;5.52;48.68
40155;BME280;25875;48.202;16.334;2023-01-30T11:56:33;98710.84;;;5.64;48.76
40155;BME280;25875;48.202;16.334;2023-01-30T11:59:03;98717.47;;;5.73;47.70
40155;BME280;25875;48.202;16.334;2023-01-30T12:01:33;98715.59;;;5.75;49.03
40155;BME280;25875;48.202;16.334;2023-01-30T12:04:05;98722.56;;;5.76;48.01
40155;BME280;25875;48.202;16.334;2023-01-30T12:06:34;98694.00;;;5.87;48.77
40155;BME280;25875;48.202;16.334;2023-01-30T12:09:02;98700.81;;;5.91;47.89
40155;BME280;25875;48.202;16.334;2023-01-30T12:11:40;98671.53;;;5.99;48.57
40155;BME280;25875;48.202;16.334;2023-01-30T12:14:18;98648.28;;;6.08;47.16
40155;BME280;25875;48.202;16.334;2023-01-30T12:16:57;98664.50;;;6.35;46.64
40155;BME280;25875;48.202;16.334;2023-01-30T12:19:35;98671.41;;;6.38;45.75
40155;BME280;25875;48.202;16.334;2023-01-30T12:22:15;98617.41;;;6.12;46.67
40155;BME280;25875;48.202;16.334;2023-01-30T12:24:54;98511.97;;;5.08;46.74
40155;BME280;25875;48.202;16.334;2023-01-30T12:27:28;98671.63;;;5.78;47.78
40155;BME280;25875;48.202;16.334;2023-01-30T12:30:03;98579.66;;;5.02;47.85
40155;BME280;25875;48.202;16.334;2023-01-30T12:32:32;98698.66;;;5.43;50.22
40155;BME280;25875;48.202;16.334;2023-01-30T12:35:00;98629.97;;;4.93;50.03
40155;BME280;25875;48.202;16.334;2023-01-30T12:37:38;98694.56;;;5.17;48.32
40155;BME280;25875;48.202;16.334;2023-01-30T12:40:20;98701.47;;;4.99;49.03
40155;BME280;25875;48.202;16.334;2023-01-30T12:43:17;98678.97;;;4.72;49.22
40155;BME280;25875;48.202;16.334;2023-01-30T12:45:53;98700.63;;;4.77;50.75
40155;BME280;25875;48.202;16.334;2023-01-30T12:48:43;98707.91;;;4.70;49.86
40155;BME280;25875;48.202;16.334;2023-01-30T12:51:21;98710.31;;;4.55;50.25
40155;BME280;25875;48.202;16.334;2023-01-30T12:53:59;98717.91;;;4.40;51.18
40155;BME280;25875;48.202;16.334;2023-01-30T12:56:41;98697.34;;;4.30;51.07
40155;BME280;25875;48.202;16.334;2023-01-30T12:59:15;98721.34;;;4.19;51.48
40155;BME280;25875;48.202;16.334;2023-01-30T13:01:55;98711.16;;;4.11;51.75
40155;BME280;25875;48.202;16.334;2023-01-30T13:04:32;98717.53;;;4.04;52.61
40155;BME280;25875;48.202;16.334;2023-01-30T13:07:13;98737.06;;;3.97;52.58
40155;BME280;25875;48.202;16.334;2023-01-30T13:09:54;98725.09;;;3.90;53.78
40155;BME280;25875;48.202;16.334;2023-01-30T13:12:30;98727.94;;;3.84;53.96
40155;BME280;25875;48.202;16.334;2023-01-30T13:15:03;98793.59;;;3.81;54.84
40155;BME280;25875;48.202;16.334;2023-01-30T13:17:47;98719.41;;;3.79;54.94